Time;durP1;ratioP1;P1;durP2;ratioP2;P2;SDS_P1;SDS_P2;PMS_P1;PMS_P2;Temp;Humidity;BMP_temperature;BMP_pressure;BME280_temperature;BME280_humidity;BME280_pressure;Samples;Min_cycle;Max_cycle;Signal;HPM_P1;HPM_P2
2023/08/07 00:01:49;;;;;;;1.92;1.33;;;;;;;;;;5030599;28;20091;-76
2023/08/07 00:04:14;;;;;;;1.30;1.13;;;;;;;;;;5030663;28;20036;-76
2023/08/07 00:06:39;;;;;;;1.73;1.10;;;;;;;;;;5030674;28;20083;-75
2023/08/07 00:09:05;;;;;;;1.33;1.08;;;;;;;;;;5027963;28;20104;-76
2023/08/07 00:11:30;;;;;;;1.63;1.40;;;;;;;;;;5030838;28;20022;-76
2023/08/07 00:13:55;;;;;;;1.30;1.20;;;;;;;;;;5045862;28;20045;-75
2023/08/07 00:16:21;;;;;;;1.17;1.10;;;;;;;;;;5030008;28;20477;-76
2023/08/07 00:18:46;;;;;;;1.38;1.27;;;;;;;;;;5030829;28;20030;-76
2023/08/07 00:21:12;;;;;;;1.33;1.23;;;;;;;;;;5030506;28;20037;-76
2023/08/07 00:23:37;;;;;;;1.52;1.40;;;;;;;;;;5030615;28;20076;-77
2023/08/07 00:26:02;;;;;;;1.75;1.25;;;;;;;;;;5031311;28;20037;-76
2023/08/07 00:28:29;;;;;;;1.90;1.30;;;;;;;;;;5031739;28;20423;-77
2023/08/07 00:30:54;;;;;;;2.83;1.20;;;;;;;;;;5031615;28;20037;-75
2023/08/07 00:33:20;;;;;;;3.92;1.50;;;;;;;;;;5032243;28;20394;-77
2023/08/07 00:35:45;;;;;;;2.03;1.40;;;;;;;;;;5046949;28;20017;-76
2023/08/07 00:38:10;;;;;;;2.50;1.50;;;;;;;;;;5047396;28;20025;-77
2023/08/07 00:40:37;;;;;;;2.85;1.45;;;;;;;;;;5032307;28;20029;-77
2023/08/07 00:43:02;;;;;;;1.38;1.30;;;;;;;;;;5045947;28;20083;-76
2023/08/07 00:45:28;;;;;;;2.03;1.50;;;;;;;;;;5029017;28;20037;-76
2023/08/07 00:47:53;;;;;;;3.05;1.73;;;;;;;;;;5030451;28;20045;-75
2023/08/07 00:50:18;;;;;;;1.15;1.05;;;;;;;;;;5030153;28;20040;-76
2023/08/07 00:52:44;;;;;;;6.35;1.77;;;;;;;;;;5029275;28;20617;-75
2023/08/07 00:55:09;;;;;;;1.50;1.40;;;;;;;;;;5028689;28;20500;-75
2023/08/07 00:57:35;;;;;;;5.40;1.70;;;;;;;;;;5030622;28;20612;-76
2023/08/07 01:00:02;;;;;;;1.80;1.55;;;;;;;;;;5031056;28;20030;-75
2023/08/07 01:02:27;;;;;;;3.63;1.80;;;;;;;;;;5028649;28;20459;-76
2023/08/07 01:04:52;;;;;;;1.67;1.00;;;;;;;;;;5030895;28;20038;-76
2023/08/07 01:07:18;;;;;;;1.10;1.10;;;;;;;;;;5046979;28;20068;-77
2023/08/07 01:09:43;;;;;;;1.25;1.20;;;;;;;;;;5032599;28;20382;-77
2023/08/07 01:12:19;;;;;;;1.20;1.10;;;;;;;;;;5032166;28;20091;-76
2023/08/07 01:14:47;;;;;;;2.88;1.20;;;;;;;;;;5034049;28;20029;-77
2023/08/07 01:17:17;;;;;;;1.10;0.98;;;;;;;;;;5028289;28;20068;-77
2023/08/07 01:19:42;;;;;;;1.00;1.00;;;;;;;;;;5032931;28;20049;-77
2023/08/07 01:22:08;;;;;;;14.63;1.30;;;;;;;;;;5033919;28;20068;-77
2023/08/07 01:24:34;;;;;;;1.80;1.35;;;;;;;;;;5033709;28;20089;-76
2023/08/07 01:27:11;;;;;;;1.88;1.63;;;;;;;;;;5035324;28;20040;-77
2023/08/07 01:29:49;;;;;;;1.85;1.40;;;;;;;;;;5048327;28;20033;-77
2023/08/07 01:32:22;;;;;;;4.03;1.92;;;;;;;;;;5028717;28;20171;-77
2023/08/07 01:34:49;;;;;;;1.50;1.40;;;;;;;;;;5032388;28;20518;-77
2023/08/07 01:37:15;;;;;;;1.40;1.30;;;;;;;;;;5031813;28;20025;-77
2023/08/07 01:39:42;;;;;;;1.50;1.40;;;;;;;;;;5031926;28;20214;-76
2023/08/07 01:42:07;;;;;;;2.65;1.35;;;;;;;;;;5032133;28;20445;-77
2023/08/07 01:44:33;;;;;;;4.07;1.52;;;;;;;;;;5033017;28;20234;-78
2023/08/07 01:46:58;;;;;;;1.42;1.27;;;;;;;;;;5032982;28;20096;-79
2023/08/07 01:49:23;;;;;;;1.63;1.45;;;;;;;;;;5048287;28;20029;-77
2023/08/07 01:51:49;;;;;;;2.03;1.30;;;;;;;;;;5032445;28;20045;-77
2023/08/07 01:54:14;;;;;;;1.48;1.10;;;;;;;;;;5032106;28;20493;-77
2023/08/07 01:56:40;;;;;;;3.03;1.30;;;;;;;;;;5032902;28;20057;-77
2023/08/07 01:59:05;;;;;;;1.73;1.25;;;;;;;;;;5032529;28;20074;-76
2023/08/07 02:01:30;;;;;;;1.75;1.33;;;;;;;;;;5030776;28;20030;-77
2023/08/07 02:03:55;;;;;;;1.55;1.40;;;;;;;;;;5030765;28;20064;-77
2023/08/07 02:06:21;;;;;;;5.40;1.30;;;;;;;;;;5030489;28;20029;-77
2023/08/07 02:08:47;;;;;;;1.95;1.30;;;;;;;;;;5031495;28;20032;-77
2023/08/07 02:11:12;;;;;;;1.50;1.08;;;;;;;;;;5030782;28;20044;-77
2023/08/07 02:13:38;;;;;;;2.45;1.20;;;;;;;;;;5029144;28;20045;-77
2023/08/07 02:16:03;;;;;;;2.35;1.75;;;;;;;;;;5030868;28;20037;-77
2023/08/07 02:18:28;;;;;;;1.77;1.40;;;;;;;;;;5031094;28;20029;-77
2023/08/07 02:20:54;;;;;;;1.63;1.00;;;;;;;;;;5032511;28;20080;-77
2023/08/07 02:23:19;;;;;;;1.63;1.30;;;;;;;;;;5032633;28;20125;-77
2023/08/07 02:25:45;;;;;;;4.95;1.10;;;;;;;;;;5031248;28;20034;-77
2023/08/07 02:28:11;;;;;;;4.40;1.40;;;;;;;;;;5034001;28;20594;-75
2023/08/07 02:30:36;;;;;;;1.10;1.10;;;;;;;;;;5037523;28;20033;-77
2023/08/07 02:33:01;;;;;;;1.10;1.08;;;;;;;;;;5031528;28;20036;-77
2023/08/07 02:35:26;;;;;;;1.30;1.20;;;;;;;;;;5031822;28;20045;-76
2023/08/07 02:37:52;;;;;;;2.08;1.13;;;;;;;;;;5032692;28;20078;-76
2023/08/07 02:40:18;;;;;;;1.23;1.13;;;;;;;;;;5031274;28;20238;-77
2023/08/07 02:42:44;;;;;;;2.80;1.60;;;;;;;;;;5032065;28;20592;-77
2023/08/07 02:45:09;;;;;;;1.48;1.13;;;;;;;;;;5032227;28;20021;-77
2023/08/07 02:47:35;;;;;;;1.80;1.30;;;;;;;;;;5033319;28;20029;-77
2023/08/07 02:50:00;;;;;;;1.63;1.52;;;;;;;;;;5032430;28;20035;-77
2023/08/07 02:52:26;;;;;;;2.67;1.50;;;;;;;;;;5031065;28;20112;-77
2023/08/07 02:54:51;;;;;;;1.35;1.25;;;;;;;;;;5047547;28;20101;-77
2023/08/07 02:57:16;;;;;;;1.30;1.20;;;;;;;;;;5032074;28;20022;-76
2023/08/07 02:59:41;;;;;;;2.60;1.35;;;;;;;;;;5037411;28;20511;-78
2023/08/07 03:02:07;;;;;;;1.95;1.40;;;;;;;;;;5033424;28;20126;-77
2023/08/07 03:04:32;;;;;;;1.75;1.63;;;;;;;;;;5032628;28;20056;-77
2023/08/07 03:06:57;;;;;;;3.15;1.48;;;;;;;;;;5032260;28;20143;-76
2023/08/07 03:09:23;;;;;;;5.55;1.50;;;;;;;;;;5032281;28;20543;-77
2023/08/07 03:11:48;;;;;;;3.67;1.67;;;;;;;;;;5032852;28;20035;-77
2023/08/07 03:14:13;;;;;;;1.52;1.42;;;;;;;;;;5031976;28;20034;-79
2023/08/07 03:16:39;;;;;;;1.73;1.63;;;;;;;;;;5040927;28;20038;-78
2023/08/07 03:19:04;;;;;;;2.17;1.42;;;;;;;;;;5052657;28;20034;-78
2023/08/07 03:21:29;;;;;;;1.73;1.40;;;;;;;;;;5037481;28;20121;-77
2023/08/07 03:23:55;;;;;;;1.30;1.23;;;;;;;;;;5044561;28;20068;-78
2023/08/07 03:26:20;;;;;;;1.42;1.30;;;;;;;;;;5031847;28;20050;-79
2023/08/07 03:28:48;;;;;;;2.17;1.48;;;;;;;;;;5031814;28;20140;-79
2023/08/07 03:31:14;;;;;;;2.28;1.50;;;;;;;;;;5031659;28;20038;-78
2023/08/07 03:33:39;;;;;;;1.40;1.27;;;;;;;;;;5046858;28;20505;-78
2023/08/07 03:36:04;;;;;;;1.42;1.33;;;;;;;;;;5030260;28;20021;-78
2023/08/07 03:38:30;;;;;;;2.88;1.75;;;;;;;;;;5030950;28;20108;-78
2023/08/07 03:40:55;;;;;;;6.00;1.90;;;;;;;;;;5031237;28;20397;-78
2023/08/07 03:43:20;;;;;;;2.78;1.42;;;;;;;;;;5031045;28;20033;-78
2023/08/07 03:45:45;;;;;;;1.75;1.55;;;;;;;;;;5031167;28;20030;-78
2023/08/07 03:48:11;;;;;;;4.20;1.63;;;;;;;;;;5046708;28;20087;-78
2023/08/07 03:50:37;;;;;;;5.18;1.90;;;;;;;;;;5030542;28;20064;-78
2023/08/07 03:53:04;;;;;;;1.50;1.40;;;;;;;;;;5030013;28;20033;-78
2023/08/07 03:55:29;;;;;;;2.72;1.63;;;;;;;;;;5031362;28;20041;-78
2023/08/07 03:57:55;;;;;;;4.85;1.65;;;;;;;;;;5031219;28;20041;-78
2023/08/07 04:00:20;;;;;;;3.58;1.80;;;;;;;;;;5030704;28;20031;-78
2023/08/07 04:02:46;;;;;;;2.60;1.65;;;;;;;;;;5046746;28;20032;-79
2023/08/07 04:05:11;;;;;;;1.88;1.30;;;;;;;;;;5028578;28;20052;-78
2023/08/07 04:07:36;;;;;;;2.35;1.77;;;;;;;;;;5016819;28;20034;-78
2023/08/07 04:10:02;;;;;;;1.48;1.38;;;;;;;;;;5027927;28;20034;-78
2023/08/07 04:12:27;;;;;;;1.20;1.20;;;;;;;;;;5027561;28;20085;-78
2023/08/07 04:14:52;;;;;;;2.53;1.70;;;;;;;;;;5030197;28;20435;-78
2023/08/07 04:17:18;;;;;;;3.10;1.50;;;;;;;;;;5044628;28;20103;-78
2023/08/07 04:19:43;;;;;;;3.03;2.10;;;;;;;;;;5029979;28;20025;-78
2023/08/07 04:22:08;;;;;;;2.65;1.42;;;;;;;;;;5026632;28;20102;-78
2023/08/07 04:24:34;;;;;;;1.70;1.55;;;;;;;;;;5029447;28;20113;-78
2023/08/07 04:26:59;;;;;;;2.70;1.33;;;;;;;;;;5028934;28;20017;-78
2023/08/07 04:29:24;;;;;;;3.38;1.92;;;;;;;;;;5029167;28;20045;-78
2023/08/07 04:31:50;;;;;;;1.80;1.70;;;;;;;;;;5028998;28;20126;-78
2023/08/07 04:34:15;;;;;;;1.48;1.38;;;;;;;;;;5027943;28;20615;-78
2023/08/07 04:36:40;;;;;;;2.95;1.27;;;;;;;;;;5028306;28;20088;-79
2023/08/07 04:39:07;;;;;;;1.63;1.52;;;;;;;;;;5029096;28;20028;-77
2023/08/07 04:41:32;;;;;;;2.25;1.38;;;;;;;;;;5028039;28;20115;-78
2023/08/07 04:43:57;;;;;;;1.60;1.50;;;;;;;;;;5024724;28;20104;-78
2023/08/07 04:46:23;;;;;;;2.47;1.60;;;;;;;;;;5026625;28;20100;-78
2023/08/07 04:48:48;;;;;;;2.65;1.50;;;;;;;;;;5028980;28;20033;-78
2023/08/07 04:51:13;;;;;;;3.50;1.90;;;;;;;;;;5026841;28;20163;-79
2023/08/07 04:53:39;;;;;;;4.20;1.38;;;;;;;;;;5027931;28;20036;-78
2023/08/07 04:56:04;;;;;;;3.15;1.20;;;;;;;;;;5041597;28;20072;-79
2023/08/07 04:58:29;;;;;;;1.95;1.40;;;;;;;;;;5027551;28;20400;-78
2023/08/07 05:00:55;;;;;;;1.33;1.23;;;;;;;;;;5026755;28;20030;-78
2023/08/07 05:03:21;;;;;;;1.15;1.13;;;;;;;;;;5027548;28;20084;-77
2023/08/07 05:05:46;;;;;;;1.70;1.38;;;;;;;;;;5025330;28;20489;-77
2023/08/07 05:08:11;;;;;;;2.45;1.23;;;;;;;;;;5027036;28;20133;-78
2023/08/07 05:10:37;;;;;;;1.48;1.38;;;;;;;;;;5025420;28;20111;-78
2023/08/07 05:13:02;;;;;;;3.30;1.50;;;;;;;;;;5026130;28;20037;-78
2023/08/07 05:15:28;;;;;;;5.68;1.63;;;;;;;;;;5024426;28;20453;-78
2023/08/07 05:17:54;;;;;;;3.45;1.80;;;;;;;;;;5027019;28;20029;-78
2023/08/07 05:20:19;;;;;;;1.52;1.38;;;;;;;;;;5024939;28;20056;-78
2023/08/07 05:22:44;;;;;;;1.58;1.30;;;;;;;;;;5026210;28;20512;-78
2023/08/07 05:25:12;;;;;;;1.73;1.38;;;;;;;;;;5024839;28;20038;-78
2023/08/07 05:27:37;;;;;;;1.65;1.40;;;;;;;;;;5025705;28;20034;-78
2023/08/07 05:30:03;;;;;;;7.25;1.30;;;;;;;;;;5026980;28;20675;-78
2023/08/07 05:32:28;;;;;;;2.25;1.60;;;;;;;;;;5027107;28;20095;-78
2023/08/07 05:34:54;;;;;;;1.25;1.23;;;;;;;;;;5025932;28;20029;-78
2023/08/07 05:37:19;;;;;;;1.63;1.52;;;;;;;;;;5042377;28;20048;-78
2023/08/07 05:39:44;;;;;;;5.75;1.17;;;;;;;;;;5024811;28;20068;-78
2023/08/07 05:42:10;;;;;;;1.27;1.17;;;;;;;;;;5042142;28;20033;-78
2023/08/07 05:44:35;;;;;;;1.77;1.20;;;;;;;;;;5025450;28;20021;-79
2023/08/07 05:47:01;;;;;;;2.15;1.17;;;;;;;;;;5023611;28;20041;-78
2023/08/07 05:49:26;;;;;;;2.47;1.30;;;;;;;;;;5024273;28;20037;-78
2023/08/07 05:51:52;;;;;;;3.55;1.27;;;;;;;;;;5026614;28;20026;-78
2023/08/07 05:54:17;;;;;;;2.45;1.30;;;;;;;;;;5027269;28;20538;-78
2023/08/07 05:56:43;;;;;;;1.33;1.13;;;;;;;;;;5042435;28;20028;-79
2023/08/07 05:59:08;;;;;;;1.95;1.35;;;;;;;;;;5026486;28;20044;-79
2023/08/07 06:01:33;;;;;;;5.47;1.80;;;;;;;;;;5024244;28;20041;-78
2023/08/07 06:03:59;;;;;;;12.23;1.30;;;;;;;;;;5041499;28;20052;-79
2023/08/07 06:06:25;;;;;;;1.27;1.15;;;;;;;;;;5028328;28;20037;-79
2023/08/07 06:08:51;;;;;;;1.23;1.13;;;;;;;;;;5027619;28;20532;-78
2023/08/07 06:11:17;;;;;;;2.47;1.42;;;;;;;;;;5043090;28;20807;-79
2023/08/07 06:13:42;;;;;;;1.55;1.40;;;;;;;;;;5043526;28;20041;-78
2023/08/07 06:16:07;;;;;;;1.67;1.30;;;;;;;;;;5027635;28;20442;-79
2023/08/07 06:18:34;;;;;;;4.75;1.50;;;;;;;;;;5027404;28;20045;-79
2023/08/07 06:21:03;;;;;;;3.80;1.42;;;;;;;;;;5028133;28;20025;-79
2023/08/07 06:23:29;;;;;;;2.25;1.38;;;;;;;;;;5028672;28;20041;-79
2023/08/07 06:25:54;;;;;;;1.30;1.20;;;;;;;;;;5028686;28;20519;-79
2023/08/07 06:28:19;;;;;;;1.23;1.08;;;;;;;;;;5028238;28;20021;-79
2023/08/07 06:30:45;;;;;;;1.30;1.20;;;;;;;;;;5042037;28;20049;-79
2023/08/07 06:33:10;;;;;;;2.50;1.48;;;;;;;;;;5027913;28;20021;-79
2023/08/07 06:35:39;;;;;;;1.48;1.30;;;;;;;;;;5026856;28;20025;-78
2023/08/07 06:38:05;;;;;;;1.40;1.17;;;;;;;;;;5024642;28;20094;-78
2023/08/07 06:40:30;;;;;;;2.55;1.05;;;;;;;;;;5026243;28;20041;-79
2023/08/07 06:42:55;;;;;;;2.95;1.25;;;;;;;;;;5027563;28;20044;-78
2023/08/07 06:45:21;;;;;;;1.35;1.25;;;;;;;;;;5027473;28;20075;-78
2023/08/07 06:47:46;;;;;;;2.10;1.30;;;;;;;;;;5027532;28;20120;-79
2023/08/07 06:50:13;;;;;;;5.38;1.38;;;;;;;;;;5042828;28;20033;-78
2023/08/07 06:52:38;;;;;;;2.10;1.27;;;;;;;;;;5030002;28;20029;-78
2023/08/07 06:55:04;;;;;;;1.65;1.38;;;;;;;;;;5044285;28;20042;-78
2023/08/07 06:57:29;;;;;;;1.67;1.30;;;;;;;;;;5030654;28;20412;-78
2023/08/07 06:59:54;;;;;;;2.25;1.33;;;;;;;;;;5031922;28;20481;-77
2023/08/07 07:02:20;;;;;;;2.63;1.40;;;;;;;;;;5042684;28;20078;-78
2023/08/07 07:04:45;;;;;;;1.90;1.27;;;;;;;;;;5027642;28;20088;-78
2023/08/07 07:07:10;;;;;;;1.33;1.23;;;;;;;;;;5027535;28;20029;-79
2023/08/07 07:09:36;;;;;;;1.33;1.23;;;;;;;;;;5046276;28;20034;-78
2023/08/07 07:12:01;;;;;;;1.27;1.17;;;;;;;;;;5027296;28;20032;-78
2023/08/07 07:14:26;;;;;;;2.92;1.42;;;;;;;;;;5028237;28;20037;-78
2023/08/07 07:16:51;;;;;;;1.77;1.35;;;;;;;;;;5028165;28;20392;-78
2023/08/07 07:19:17;;;;;;;1.23;1.13;;;;;;;;;;5032660;28;20030;-78
2023/08/07 07:21:42;;;;;;;7.63;1.65;;;;;;;;;;5030151;28;20119;-78
2023/08/07 07:24:07;;;;;;;2.85;1.40;;;;;;;;;;5030984;28;20033;-78
2023/08/07 07:26:33;;;;;;;1.65;1.55;;;;;;;;;;5028451;28;20048;-78
2023/08/07 07:28:58;;;;;;;1.75;1.20;;;;;;;;;;5047872;28;20103;-79
2023/08/07 07:31:23;;;;;;;4.00;1.02;;;;;;;;;;5028807;28;20084;-78
2023/08/07 07:33:49;;;;;;;1.30;1.20;;;;;;;;;;5029751;28;20460;-78
2023/08/07 07:36:21;;;;;;;1.20;1.10;;;;;;;;;;5031625;28;20061;-79
2023/08/07 07:38:47;;;;;;;1.25;1.02;;;;;;;;;;5046654;28;20029;-80
2023/08/07 07:41:13;;;;;;;1.65;1.40;;;;;;;;;;5029052;28;20064;-78
2023/08/07 07:43:39;;;;;;;1.23;1.17;;;;;;;;;;5030139;28;20045;-79
2023/08/07 07:46:04;;;;;;;1.55;1.40;;;;;;;;;;5029794;28;20048;-79
2023/08/07 07:48:30;;;;;;;4.47;1.35;;;;;;;;;;5028184;28;20063;-79
2023/08/07 07:50:59;;;;;;;1.92;1.30;;;;;;;;;;5030928;28;20041;-79
2023/08/07 07:53:25;;;;;;;1.55;1.30;;;;;;;;;;5045679;28;20041;-79
2023/08/07 07:55:50;;;;;;;1.60;1.50;;;;;;;;;;5031533;28;20442;-80
2023/08/07 07:58:15;;;;;;;1.50;1.23;;;;;;;;;;5031664;28;20033;-79
2023/08/07 08:00:40;;;;;;;0.93;0.93;;;;;;;;;;5028145;28;20046;-80
2023/08/07 08:03:06;;;;;;;9.80;1.63;;;;;;;;;;5029676;28;21436;-80
2023/08/07 08:05:31;;;;;;;1.40;1.30;;;;;;;;;;5032048;28;20030;-79
2023/08/07 08:07:57;;;;;;;1.30;1.20;;;;;;;;;;5031831;28;20057;-79
2023/08/07 08:10:22;;;;;;;1.77;1.33;;;;;;;;;;5030965;28;20041;-79
2023/08/07 08:12:47;;;;;;;5.57;1.60;;;;;;;;;;5044177;28;20041;-79
2023/08/07 08:15:13;;;;;;;1.00;1.00;;;;;;;;;;5033695;28;20055;-79
2023/08/07 08:17:39;;;;;;;1.10;1.00;;;;;;;;;;5031680;28;20041;-79
2023/08/07 08:20:08;;;;;;;2.28;1.20;;;;;;;;;;5031068;28;20033;-78
2023/08/07 08:22:33;;;;;;;4.13;1.33;;;;;;;;;;5029074;28;20072;-80
2023/08/07 08:24:59;;;;;;;1.73;1.40;;;;;;;;;;5030733;28;20065;-79
2023/08/07 08:27:25;;;;;;;1.65;1.15;;;;;;;;;;5029621;28;20033;-79
2023/08/07 08:29:50;;;;;;;1.23;1.17;;;;;;;;;;5028700;28;20138;-80
2023/08/07 08:32:15;;;;;;;2.95;1.20;;;;;;;;;;5031155;28;20057;-79
2023/08/07 08:34:41;;;;;;;7.13;1.52;;;;;;;;;;5030996;28;20052;-79
2023/08/07 08:37:06;;;;;;;3.70;2.40;;;;;;;;;;5031285;28;20026;-79
2023/08/07 08:39:31;;;;;;;1.60;1.40;;;;;;;;;;5029356;28;20041;-79
2023/08/07 08:41:57;;;;;;;1.27;1.20;;;;;;;;;;5027089;28;20204;-79
2023/08/07 08:44:24;;;;;;;1.38;1.10;;;;;;;;;;5026889;28;20040;-79
2023/08/07 08:46:53;;;;;;;1.13;1.02;;;;;;;;;;5027050;28;20106;-79
2023/08/07 08:49:26;;;;;;;1.90;1.20;;;;;;;;;;5042863;28;20046;-79
2023/08/07 08:51:51;;;;;;;1.25;1.15;;;;;;;;;;5026394;28;20240;-79
2023/08/07 08:54:17;;;;;;;1.58;1.30;;;;;;;;;;5023240;28;20026;-79
2023/08/07 08:56:43;;;;;;;2.28;1.23;;;;;;;;;;5028185;28;20021;-79
2023/08/07 08:59:09;;;;;;;0.90;0.90;;;;;;;;;;5029081;28;20575;-79
2023/08/07 09:01:35;;;;;;;5.07;1.77;;;;;;;;;;5043608;28;20029;-78
2023/08/07 09:04:03;;;;;;;1.17;0.90;;;;;;;;;;5029979;28;20037;-78
2023/08/07 09:06:31;;;;;;;1.45;1.20;;;;;;;;;;5028406;28;20096;-79
2023/08/07 09:08:58;;;;;;;1.25;1.15;;;;;;;;;;5030573;28;20040;-79
2023/08/07 09:11:24;;;;;;;2.25;1.27;;;;;;;;;;5030696;28;20034;-79
2023/08/07 09:13:49;;;;;;;1.25;1.17;;;;;;;;;;5029932;28;20034;-79
2023/08/07 09:16:16;;;;;;;2.38;1.40;;;;;;;;;;5044285;28;20045;-79
2023/08/07 09:18:42;;;;;;;1.27;1.17;;;;;;;;;;5045631;28;20053;-80
2023/08/07 09:21:07;;;;;;;1.25;1.17;;;;;;;;;;5045936;28;20115;-79
2023/08/07 09:23:33;;;;;;;1.98;0.88;;;;;;;;;;5036122;22;20026;-87
2023/08/07 09:26:03;;;;;;;1.40;1.25;;;;;;;;;;5028630;28;20026;-87
2023/08/07 09:28:32;;;;;;;1.05;0.90;;;;;;;;;;5010960;28;20026;-87
2023/08/07 09:30:58;;;;;;;3.28;1.20;;;;;;;;;;5018307;28;20050;-87
2023/08/07 09:33:28;;;;;;;1.40;1.17;;;;;;;;;;5031979;28;20088;-87
2023/08/07 09:35:58;;;;;;;1.17;1.00;;;;;;;;;;5019660;28;20021;-87
2023/08/07 09:38:23;;;;;;;1.27;1.13;;;;;;;;;;5010281;28;20042;-87
2023/08/07 09:40:49;;;;;;;2.10;1.13;;;;;;;;;;5016726;28;20117;-86
2023/08/07 09:43:22;;;;;;;1.13;1.10;;;;;;;;;;5014941;28;20076;-89
2023/08/07 09:45:50;;;;;;;1.58;1.10;;;;;;;;;;5049466;28;20041;-88
2023/08/07 09:48:22;;;;;;;2.80;1.00;;;;;;;;;;5030688;28;20040;-88
2023/08/07 09:50:47;;;;;;;0.80;0.80;;;;;;;;;;5029684;28;20516;-87
2023/08/07 09:53:13;;;;;;;1.52;1.42;;;;;;;;;;5015371;28;20096;-89
2023/08/07 09:55:38;;;;;;;2.30;1.42;;;;;;;;;;5008639;28;20048;-87
2023/08/07 09:58:07;;;;;;;1.23;1.13;;;;;;;;;;5009761;28;20368;-87
2023/08/07 10:00:36;;;;;;;1.33;1.20;;;;;;;;;;5016470;28;20037;-87
2023/08/07 10:03:01;;;;;;;1.58;1.25;;;;;;;;;;5027821;28;20053;-88
2023/08/07 10:05:27;;;;;;;2.03;1.10;;;;;;;;;;5009049;28;20057;-88
2023/08/07 10:07:54;;;;;;;2.25;1.20;;;;;;;;;;5008657;28;20045;-88
2023/08/07 10:10:21;;;;;;;1.30;1.20;;;;;;;;;;5028953;28;20042;-88
2023/08/07 10:12:47;;;;;;;1.13;1.02;;;;;;;;;;5028271;28;20551;-89
2023/08/07 10:15:17;;;;;;;4.63;1.65;;;;;;;;;;5004094;28;20014;-87
2023/08/07 10:17:43;;;;;;;6.10;1.20;;;;;;;;;;4998025;28;20026;-88
2023/08/07 10:20:15;;;;;;;1.77;1.13;;;;;;;;;;4995443;28;20061;-88
2023/08/07 10:23:15;;;;;;;1.10;1.10;;;;;;;;;;4990112;28;20168;-88
2023/08/07 10:25:43;;;;;;;1.83;1.20;;;;;;;;;;5012083;28;20521;-88
2023/08/07 10:28:12;;;;;;;1.30;1.20;;;;;;;;;;5008606;28;20113;-89
2023/08/07 10:30:38;;;;;;;3.17;1.40;;;;;;;;;;5009060;28;20026;-89
2023/08/07 10:33:05;;;;;;;2.55;0.93;;;;;;;;;;5012486;28;20539;-89
2023/08/07 10:35:33;;;;;;;1.50;1.15;;;;;;;;;;5035406;28;20433;-88
2023/08/07 10:38:17;;;;;;;1.75;1.40;;;;;;;;;;5037069;28;20041;-88
2023/08/07 10:41:23;;;;;;;1.13;1.02;;;;;;;;;;5027330;28;20041;-88
2023/08/07 10:43:53;;;;;;;1.40;1.30;;;;;;;;;;5022402;28;20045;-89
2023/08/07 10:47:13;;;;;;;0.90;0.90;;;;;;;;;;5021941;28;20068;-89
2023/08/07 10:49:45;;;;;;;1.17;1.05;;;;;;;;;;5025367;28;20068;-89
2023/08/07 10:53:05;;;;;;;1.40;0.80;;;;;;;;;;4993789;28;20041;-88
2023/08/07 10:55:52;;;;;;;0.93;0.90;;;;;;;;;;5018011;28;20026;-88
2023/08/07 10:58:37;;;;;;;1.30;0.70;;;;;;;;;;5006850;28;20473;-88
2023/08/07 11:05:22;;;;;;;0.70;0.70;;;;;;;;;;5008734;28;20044;-88
2023/08/07 11:07:57;;;;;;;1.05;0.80;;;;;;;;;;5023486;28;20155;-89
2023/08/07 11:11:12;;;;;;;2.38;1.13;;;;;;;;;;5011470;28;20066;-88
2023/08/07 11:14:33;;;;;;;1.10;0.70;;;;;;;;;;4984027;28;20038;-88
2023/08/07 11:17:18;;;;;;;0.80;0.80;;;;;;;;;;4994174;28;20093;-88
2023/08/07 11:20:25;;;;;;;1.88;0.90;;;;;;;;;;4997753;28;20038;-88
2023/08/07 11:23:02;;;;;;;0.80;0.80;;;;;;;;;;4994305;28;20044;-88
2023/08/07 11:25:47;;;;;;;0.90;0.90;;;;;;;;;;4994501;28;20034;-88
2023/08/07 11:28:14;;;;;;;2.05;0.90;;;;;;;;;;4993970;28;20026;-88
2023/08/07 11:30:43;;;;;;;1.00;1.00;;;;;;;;;;5010163;28;20030;-89
2023/08/07 11:33:13;;;;;;;1.17;0.70;;;;;;;;;;4992777;28;20031;-88
2023/08/07 11:36:55;;;;;;;0.70;0.70;;;;;;;;;;5008800;28;20091;-89
2023/08/07 11:39:33;;;;;;;0.80;0.80;;;;;;;;;;4934168;28;20510;-89
2023/08/07 11:42:05;;;;;;;0.73;0.73;;;;;;;;;;4957391;29;20035;-88
2023/08/07 11:44:33;;;;;;;0.98;0.98;;;;;;;;;;4957078;28;20057;-90
2023/08/07 11:47:39;;;;;;;0.90;0.90;;;;;;;;;;4955353;28;20046;-88
2023/08/07 11:50:06;;;;;;;0.85;0.85;;;;;;;;;;4944603;28;20646;-90
2023/08/07 11:52:31;;;;;;;0.82;0.82;;;;;;;;;;4962665;28;20359;-90
2023/08/07 11:54:57;;;;;;;1.80;1.00;;;;;;;;;;4999837;28;20042;-90
2023/08/07 11:57:22;;;;;;;0.60;0.60;;;;;;;;;;5030024;28;20430;-90
2023/08/07 11:59:53;;;;;;;1.00;1.00;;;;;;;;;;5014147;28;20083;-89
2023/08/07 12:02:25;;;;;;;0.77;0.77;;;;;;;;;;5033133;28;20117;-90
2023/08/07 12:04:50;;;;;;;1.30;0.80;;;;;;;;;;5030046;28;20034;-90
2023/08/07 12:07:34;;;;;;;0.88;0.88;;;;;;;;;;5010093;28;20490;-90
2023/08/07 12:10:51;;;;;;;0.90;0.90;;;;;;;;;;5012888;28;20293;-90
2023/08/07 12:13:35;;;;;;;0.80;0.80;;;;;;;;;;5025843;28;20064;-89
2023/08/07 12:16:09;;;;;;;6.65;1.00;;;;;;;;;;5036188;28;20057;-89
2023/08/07 12:18:37;;;;;;;0.90;0.90;;;;;;;;;;5011179;28;20034;-89
2023/08/07 12:21:05;;;;;;;4.72;1.02;;;;;;;;;;5019696;28;20065;-89
2023/08/07 12:24:01;;;;;;;0.93;0.90;;;;;;;;;;5027649;28;20077;-89
2023/08/07 12:26:27;;;;;;;1.15;0.90;;;;;;;;;;5019179;28;20064;-87
2023/08/07 12:28:53;;;;;;;1.15;1.05;;;;;;;;;;5017849;28;20433;-88
2023/08/07 12:31:19;;;;;;;0.90;0.90;;;;;;;;;;5024078;28;20133;-88
2023/08/07 12:33:44;;;;;;;0.93;0.90;;;;;;;;;;5010657;28;20034;-87
2023/08/07 12:36:10;;;;;;;0.95;0.95;;;;;;;;;;5014311;28;20026;-88
2023/08/07 12:38:35;;;;;;;1.02;0.95;;;;;;;;;;5016602;28;20033;-88
2023/08/07 12:41:03;;;;;;;1.60;1.00;;;;;;;;;;5031769;28;20148;-89
2023/08/07 12:43:28;;;;;;;1.05;0.95;;;;;;;;;;5014369;28;20095;-88
2023/08/07 12:45:54;;;;;;;0.90;0.90;;;;;;;;;;5029443;28;20501;-88
2023/08/07 12:48:19;;;;;;;1.05;0.80;;;;;;;;;;5009272;28;20036;-88
2023/08/07 12:50:45;;;;;;;1.10;1.00;;;;;;;;;;5006770;28;20029;-88
2023/08/07 12:53:11;;;;;;;1.15;1.00;;;;;;;;;;5008297;28;20049;-88
2023/08/07 12:55:36;;;;;;;1.00;1.00;;;;;;;;;;5023347;28;20080;-88
2023/08/07 12:58:02;;;;;;;0.77;0.77;;;;;;;;;;5025136;28;20038;-89
2023/08/07 13:00:27;;;;;;;0.80;0.80;;;;;;;;;;5016949;28;20477;-88
2023/08/07 13:02:54;;;;;;;0.93;0.93;;;;;;;;;;5019865;28;20073;-88
2023/08/07 13:05:20;;;;;;;0.93;0.90;;;;;;;;;;5019882;28;20029;-88
2023/08/07 13:07:46;;;;;;;0.80;0.80;;;;;;;;;;5017864;28;20509;-88
2023/08/07 13:10:14;;;;;;;0.80;0.80;;;;;;;;;;5036374;28;20033;-88
2023/08/07 13:12:43;;;;;;;0.80;0.80;;;;;;;;;;5015128;28;20089;-88
2023/08/07 13:15:15;;;;;;;2.42;0.80;;;;;;;;;;5031038;28;20033;-88
2023/08/07 13:17:42;;;;;;;0.80;0.80;;;;;;;;;;5031454;28;20030;-89
2023/08/07 13:20:10;;;;;;;0.90;0.90;;;;;;;;;;5011139;28;20060;-88
2023/08/07 13:22:42;;;;;;;1.38;0.95;;;;;;;;;;5016020;28;20026;-88
2023/08/07 13:25:08;;;;;;;0.93;0.93;;;;;;;;;;5013972;28;20042;-90
2023/08/07 13:27:35;;;;;;;1.48;1.00;;;;;;;;;;5020719;28;20509;-88
2023/08/07 13:30:01;;;;;;;1.10;1.00;;;;;;;;;;5030230;28;20080;-88
2023/08/07 13:32:27;;;;;;;1.35;1.05;;;;;;;;;;5011213;28;20034;-88
2023/08/07 13:34:53;;;;;;;1.65;0.98;;;;;;;;;;5011320;28;20034;-88
2023/08/07 13:37:18;;;;;;;2.00;0.95;;;;;;;;;;5029627;28;20034;-88
2023/08/07 13:39:43;;;;;;;3.55;0.80;;;;;;;;;;5012165;28;20041;-89
2023/08/07 13:42:10;;;;;;;0.98;0.98;;;;;;;;;;5013656;28;20032;-88
2023/08/07 13:44:36;;;;;;;2.15;1.02;;;;;;;;;;5020302;28;20018;-87
2023/08/07 13:47:01;;;;;;;0.85;0.85;;;;;;;;;;5006573;28;20034;-88
2023/08/07 13:49:26;;;;;;;0.98;0.98;;;;;;;;;;5017416;28;20025;-89
2023/08/07 13:51:52;;;;;;;0.90;0.70;;;;;;;;;;5011790;28;20035;-88
2023/08/07 13:54:17;;;;;;;0.82;0.82;;;;;;;;;;5014591;28;20027;-88
2023/08/07 13:56:43;;;;;;;1.33;1.23;;;;;;;;;;5025257;28;20033;-89
2023/08/07 13:59:09;;;;;;;1.05;0.80;;;;;;;;;;5032560;28;20060;-88
2023/08/07 14:01:35;;;;;;;7.32;0.98;;;;;;;;;;5014687;28;20038;-89
2023/08/07 14:04:01;;;;;;;0.80;0.80;;;;;;;;;;5020218;28;20375;-88
2023/08/07 14:06:26;;;;;;;0.80;0.70;;;;;;;;;;5018777;28;20409;-88
2023/08/07 14:08:52;;;;;;;0.80;0.80;;;;;;;;;;5018257;28;20021;-88
2023/08/07 14:11:19;;;;;;;0.80;0.80;;;;;;;;;;5014467;28;20034;-88
2023/08/07 14:13:45;;;;;;;0.70;0.68;;;;;;;;;;5019905;28;20093;-88
2023/08/07 14:16:11;;;;;;;0.85;0.68;;;;;;;;;;5034974;28;20040;-89
2023/08/07 14:18:36;;;;;;;1.38;0.93;;;;;;;;;;5024411;28;20033;-88
2023/08/07 14:21:01;;;;;;;0.85;0.80;;;;;;;;;;5019488;28;20032;-88
2023/08/07 14:23:27;;;;;;;0.90;0.90;;;;;;;;;;5022637;28;20026;-89
2023/08/07 14:25:52;;;;;;;0.80;0.73;;;;;;;;;;5016365;28;20096;-88
2023/08/07 14:28:18;;;;;;;0.77;0.77;;;;;;;;;;5036466;28;20097;-89
2023/08/07 14:30:44;;;;;;;3.83;0.70;;;;;;;;;;5026857;28;20041;-90
2023/08/07 14:33:09;;;;;;;0.70;0.70;;;;;;;;;;5035922;28;20069;-89
2023/08/07 14:35:34;;;;;;;2.38;1.10;;;;;;;;;;5036111;28;20017;-92
2023/08/07 14:38:00;;;;;;;0.80;0.80;;;;;;;;;;5035832;28;20053;-91
2023/08/07 14:40:26;;;;;;;1.10;1.00;;;;;;;;;;5031913;28;20046;-90
2023/08/07 14:42:51;;;;;;;0.90;0.90;;;;;;;;;;5026782;28;20053;-90
2023/08/07 14:45:18;;;;;;;0.93;0.93;;;;;;;;;;5051669;28;20052;-88
2023/08/07 14:47:43;;;;;;;0.93;0.80;;;;;;;;;;5042241;28;20022;-88
2023/08/07 14:50:09;;;;;;;1.20;1.10;;;;;;;;;;5016076;28;20037;-88
2023/08/07 14:52:35;;;;;;;0.75;0.75;;;;;;;;;;5030705;28;20046;-88